sensor_id;sensor_type;location;lat;lon;timestamp;pressure;altitude;pressure_sealevel;temperature;humidity
70971;BME280;58632;51.718;19.446;2024-01-10T00:01:46;101421.34;;;-9.44;100.00
70971;BME280;58632;51.718;19.446;2024-01-10T00:04:11;101423.73;;;-9.40;100.00
70971;BME280;58632;51.718;19.446;2024-01-10T00:06:37;101421.73;;;-9.37;100.00
70971;BME280;58632;51.718;19.446;2024-01-10T00:09:02;101416.67;;;-9.38;100.00
70971;BME280;58632;51.718;19.446;2024-01-10T00:11:30;101417.15;;;-9.41;100.00
70971;BME280;58632;51.718;19.446;2024-01-10T00:13:58;101410.83;;;-9.43;100.00
70971;BME280;58632;51.718;19.446;2024-01-10T00:16:25;101409.65;;;-9.46;100.00
70971;BME280;58632;51.718;19.446;2024-01-10T00:18:53;101414.06;;;-9.49;100.00
70971;BME280;58632;51.718;19.446;2024-01-10T00:21:18;101416.58;;;-9.49;100.00
70971;BME280;58632;51.718;19.446;2024-01-10T00:23:43;101409.58;;;-9.47;100.00
70971;BME280;58632;51.718;19.446;2024-01-10T00:26:09;101405.73;;;-9.42;100.00
70971;BME280;58632;51.718;19.446;2024-01-10T00:28:34;101402.13;;;-9.38;100.00
70971;BME280;58632;51.718;19.446;2024-01-10T00:31:00;101406.13;;;-9.31;100.00
70971;BME280;58632;51.718;19.446;2024-01-10T00:33:25;101401.24;;;-9.29;100.00
70971;BME280;58632;51.718;19.446;2024-01-10T00:35:50;101398.99;;;-9.29;100.00
70971;BME280;58632;51.718;19.446;2024-01-10T00:38:16;101396.02;;;-9.33;100.00
70971;BME280;58632;51.718;19.446;2024-01-10T00:40:41;101402.77;;;-9.44;100.00
70971;BME280;58632;51.718;19.446;2024-01-10T00:43:07;101398.39;;;-9.50;100.00
70971;BME280;58632;51.718;19.446;2024-01-10T00:45:32;101398.70;;;-9.48;100.00
70971;BME280;58632;51.718;19.446;2024-01-10T00:47:58;101401.12;;;-9.44;100.00
70971;BME280;58632;51.718;19.446;2024-01-10T00:50:23;101402.65;;;-9.35;100.00
70971;BME280;58632;51.718;19.446;2024-01-10T00:52:49;101394.36;;;-9.31;100.00
70971;BME280;58632;51.718;19.446;2024-01-10T00:55:14;101394.59;;;-9.31;100.00
70971;BME280;58632;51.718;19.446;2024-01-10T00:57:42;101400.36;;;-9.36;100.00
70971;BME280;58632;51.718;19.446;2024-01-10T01:00:08;101398.32;;;-9.33;100.00
70971;BME280;58632;51.718;19.446;2024-01-10T01:02:34;101394.70;;;-9.32;100.00
70971;BME280;58632;51.718;19.446;2024-01-10T01:05:00;101395.21;;;-9.28;100.00
70971;BME280;58632;51.718;19.446;2024-01-10T01:07:26;101394.64;;;-9.25;100.00
70971;BME280;58632;51.718;19.446;2024-01-10T01:09:51;101390.32;;;-9.23;100.00
70971;BME280;58632;51.718;19.446;2024-01-10T01:12:17;101388.37;;;-9.22;100.00
70971;BME280;58632;51.718;19.446;2024-01-10T01:14:45;101389.35;;;-9.19;100.00
70971;BME280;58632;51.718;19.446;2024-01-10T01:17:12;101392.39;;;-9.18;100.00
70971;BME280;58632;51.718;19.446;2024-01-10T01:19:40;101386.21;;;-9.14;100.00
70971;BME280;58632;51.718;19.446;2024-01-10T01:22:05;101381.29;;;-9.16;100.00
70971;BME280;58632;51.718;19.446;2024-01-10T01:24:31;101379.72;;;-9.25;100.00
70971;BME280;58632;51.718;19.446;2024-01-10T01:26:56;101376.80;;;-9.41;100.00
70971;BME280;58632;51.718;19.446;2024-01-10T01:29:22;101368.50;;;-9.57;100.00
70971;BME280;58632;51.718;19.446;2024-01-10T01:31:48;101373.06;;;-9.76;100.00
70971;BME280;58632;51.718;19.446;2024-01-10T01:34:13;101379.36;;;-9.99;100.00
70971;BME280;58632;51.718;19.446;2024-01-10T01:36:39;101376.67;;;-10.15;100.00
70971;BME280;58632;51.718;19.446;2024-01-10T01:39:04;101379.97;;;-10.16;100.00
70971;BME280;58632;51.718;19.446;2024-01-10T01:41:30;101378.17;;;-10.16;100.00
70971;BME280;58632;51.718;19.446;2024-01-10T01:43:55;101376.64;;;-10.15;100.00
70971;BME280;58632;51.718;19.446;2024-01-10T01:46:21;101376.98;;;-10.11;100.00
70971;BME280;58632;51.718;19.446;2024-01-10T01:48:46;101379.60;;;-10.11;100.00
70971;BME280;58632;51.718;19.446;2024-01-10T01:51:12;101381.27;;;-10.13;100.00
70971;BME280;58632;51.718;19.446;2024-01-10T01:53:39;101374.73;;;-10.17;100.00
70971;BME280;58632;51.718;19.446;2024-01-10T01:56:08;101376.21;;;-10.18;100.00
70971;BME280;58632;51.718;19.446;2024-01-10T01:58:36;101373.91;;;-10.16;100.00
70971;BME280;58632;51.718;19.446;2024-01-10T02:01:03;101373.97;;;-10.16;100.00
70971;BME280;58632;51.718;19.446;2024-01-10T02:03:30;101372.21;;;-10.18;100.00
70971;BME280;58632;51.718;19.446;2024-01-10T02:05:55;101371.13;;;-10.22;100.00
70971;BME280;58632;51.718;19.446;2024-01-10T02:08:21;101364.39;;;-10.26;100.00
70971;BME280;58632;51.718;19.446;2024-01-10T02:10:47;101361.52;;;-10.28;100.00
70971;BME280;58632;51.718;19.446;2024-01-10T02:13:12;101359.19;;;-10.27;100.00
70971;BME280;58632;51.718;19.446;2024-01-10T02:15:38;101359.40;;;-10.23;100.00
70971;BME280;58632;51.718;19.446;2024-01-10T02:18:04;101360.98;;;-10.14;100.00
70971;BME280;58632;51.718;19.446;2024-01-10T02:20:30;101359.40;;;-10.01;100.00
70971;BME280;58632;51.718;19.446;2024-01-10T02:22:56;101357.94;;;-9.90;100.00
70971;BME280;58632;51.718;19.446;2024-01-10T02:25:21;101364.00;;;-9.87;100.00
70971;BME280;58632;51.718;19.446;2024-01-10T02:27:46;101359.13;;;-9.80;100.00
70971;BME280;58632;51.718;19.446;2024-01-10T02:30:12;101352.29;;;-9.75;100.00
70971;BME280;58632;51.718;19.446;2024-01-10T02:32:37;101349.40;;;-9.71;100.00
70971;BME280;58632;51.718;19.446;2024-01-10T02:35:03;101346.02;;;-9.71;100.00
70971;BME280;58632;51.718;19.446;2024-01-10T02:37:28;101343.81;;;-9.77;100.00
70971;BME280;58632;51.718;19.446;2024-01-10T02:39:54;101347.17;;;-9.86;100.00
70971;BME280;58632;51.718;19.446;2024-01-10T02:42:19;101354.48;;;-9.96;100.00
70971;BME280;58632;51.718;19.446;2024-01-10T02:44:45;101357.55;;;-9.95;100.00
70971;BME280;58632;51.718;19.446;2024-01-10T02:47:11;101351.60;;;-9.90;100.00
70971;BME280;58632;51.718;19.446;2024-01-10T02:49:37;101343.34;;;-9.89;100.00
70971;BME280;58632;51.718;19.446;2024-01-10T02:52:02;101340.21;;;-9.89;100.00
70971;BME280;58632;51.718;19.446;2024-01-10T02:54:28;101338.17;;;-9.94;100.00
70971;BME280;58632;51.718;19.446;2024-01-10T02:56:53;101340.29;;;-9.99;100.00
70971;BME280;58632;51.718;19.446;2024-01-10T02:59:18;101342.73;;;-10.04;100.00
70971;BME280;58632;51.718;19.446;2024-01-10T03:01:44;101345.55;;;-9.99;100.00
70971;BME280;58632;51.718;19.446;2024-01-10T03:04:16;101348.71;;;-9.95;100.00
70971;BME280;58632;51.718;19.446;2024-01-10T03:06:41;101350.92;;;-9.89;100.00
70971;BME280;58632;51.718;19.446;2024-01-10T03:09:07;101344.69;;;-9.90;100.00
70971;BME280;58632;51.718;19.446;2024-01-10T03:11:32;101340.32;;;-9.92;100.00
70971;BME280;58632;51.718;19.446;2024-01-10T03:14:01;101339.45;;;-9.96;100.00
70971;BME280;58632;51.718;19.446;2024-01-10T03:16:29;101341.89;;;-9.99;100.00
70971;BME280;58632;51.718;19.446;2024-01-10T03:18:55;101338.82;;;-9.96;100.00
70971;BME280;58632;51.718;19.446;2024-01-10T03:21:20;101336.39;;;-9.91;100.00
70971;BME280;58632;51.718;19.446;2024-01-10T03:23:54;101339.02;;;-9.86;100.00
70971;BME280;58632;51.718;19.446;2024-01-10T03:26:20;101329.18;;;-9.80;100.00
70971;BME280;58632;51.718;19.446;2024-01-10T03:28:45;101330.50;;;-9.77;100.00
70971;BME280;58632;51.718;19.446;2024-01-10T03:31:11;101333.66;;;-9.84;100.00
70971;BME280;58632;51.718;19.446;2024-01-10T03:33:37;101333.17;;;-9.91;100.00
70971;BME280;58632;51.718;19.446;2024-01-10T03:36:02;101331.20;;;-9.89;100.00
70971;BME280;58632;51.718;19.446;2024-01-10T03:38:28;101335.35;;;-9.88;100.00
70971;BME280;58632;51.718;19.446;2024-01-10T03:40:53;101326.03;;;-9.87;100.00
70971;BME280;58632;51.718;19.446;2024-01-10T03:43:19;101323.02;;;-9.85;100.00
70971;BME280;58632;51.718;19.446;2024-01-10T03:45:44;101324.92;;;-9.88;100.00
70971;BME280;58632;51.718;19.446;2024-01-10T03:48:10;101319.83;;;-9.89;100.00
70971;BME280;58632;51.718;19.446;2024-01-10T03:50:35;101322.66;;;-9.89;100.00
70971;BME280;58632;51.718;19.446;2024-01-10T03:53:01;101318.57;;;-9.94;100.00
70971;BME280;58632;51.718;19.446;2024-01-10T03:55:26;101320.04;;;-9.93;100.00
70971;BME280;58632;51.718;19.446;2024-01-10T03:57:52;101321.48;;;-9.90;100.00
70971;BME280;58632;51.718;19.446;2024-01-10T04:00:17;101320.41;;;-9.85;100.00
70971;BME280;58632;51.718;19.446;2024-01-10T04:02:43;101318.67;;;-9.84;100.00
70971;BME280;58632;51.718;19.446;2024-01-10T04:05:08;101319.13;;;-9.84;100.00
70971;BME280;58632;51.718;19.446;2024-01-10T04:07:39;101314.07;;;-9.80;100.00
70971;BME280;58632;51.718;19.446;2024-01-10T04:10:05;101309.86;;;-9.75;100.00
70971;BME280;58632;51.718;19.446;2024-01-10T04:12:32;101304.06;;;-9.76;100.00
70971;BME280;58632;51.718;19.446;2024-01-10T04:15:00;101304.33;;;-9.78;100.00
70971;BME280;58632;51.718;19.446;2024-01-10T04:17:25;101302.09;;;-9.83;100.00
70971;BME280;58632;51.718;19.446;2024-01-10T04:19:51;101297.29;;;-9.80;100.00
70971;BME280;58632;51.718;19.446;2024-01-10T04:22:16;101303.13;;;-9.77;100.00
70971;BME280;58632;51.718;19.446;2024-01-10T04:24:42;101304.81;;;-9.72;100.00
70971;BME280;58632;51.718;19.446;2024-01-10T04:27:07;101310.11;;;-9.70;100.00
70971;BME280;58632;51.718;19.446;2024-01-10T04:29:32;101310.29;;;-9.69;100.00
70971;BME280;58632;51.718;19.446;2024-01-10T04:31:58;101314.64;;;-9.63;100.00
70971;BME280;58632;51.718;19.446;2024-01-10T04:34:26;101317.22;;;-9.57;100.00
70971;BME280;58632;51.718;19.446;2024-01-10T04:36:51;101311.83;;;-9.55;100.00
70971;BME280;58632;51.718;19.446;2024-01-10T04:39:16;101316.34;;;-9.53;100.00
70971;BME280;58632;51.718;19.446;2024-01-10T04:41:42;101319.21;;;-9.52;100.00
70971;BME280;58632;51.718;19.446;2024-01-10T04:44:07;101318.02;;;-9.47;100.00
70971;BME280;58632;51.718;19.446;2024-01-10T04:46:32;101318.98;;;-9.41;100.00
70971;BME280;58632;51.718;19.446;2024-01-10T04:49:01;101321.41;;;-9.35;100.00
70971;BME280;58632;51.718;19.446;2024-01-10T04:51:26;101313.27;;;-9.31;100.00
70971;BME280;58632;51.718;19.446;2024-01-10T04:53:52;101314.47;;;-9.40;100.00
70971;BME280;58632;51.718;19.446;2024-01-10T04:56:17;101309.84;;;-9.50;100.00
70971;BME280;58632;51.718;19.446;2024-01-10T04:58:43;101304.14;;;-9.62;100.00
70971;BME280;58632;51.718;19.446;2024-01-10T05:01:08;101305.29;;;-9.74;100.00
70971;BME280;58632;51.718;19.446;2024-01-10T05:03:36;101304.20;;;-9.75;100.00
70971;BME280;58632;51.718;19.446;2024-01-10T05:06:01;101304.42;;;-9.72;100.00
70971;BME280;58632;51.718;19.446;2024-01-10T05:08:26;101298.55;;;-9.68;100.00
70971;BME280;58632;51.718;19.446;2024-01-10T05:10:52;101296.27;;;-9.63;100.00
70971;BME280;58632;51.718;19.446;2024-01-10T05:13:17;101297.77;;;-9.59;100.00
70971;BME280;58632;51.718;19.446;2024-01-10T05:15:43;101298.55;;;-9.54;100.00
70971;BME280;58632;51.718;19.446;2024-01-10T05:18:08;101304.84;;;-9.50;100.00
70971;BME280;58632;51.718;19.446;2024-01-10T05:20:37;101306.08;;;-9.48;100.00
70971;BME280;58632;51.718;19.446;2024-01-10T05:23:05;101308.80;;;-9.45;100.00
70971;BME280;58632;51.718;19.446;2024-01-10T05:25:32;101305.65;;;-9.40;100.00
70971;BME280;58632;51.718;19.446;2024-01-10T05:27:57;101302.78;;;-9.38;100.00
70971;BME280;58632;51.718;19.446;2024-01-10T05:30:23;101297.09;;;-9.36;100.00
70971;BME280;58632;51.718;19.446;2024-01-10T05:32:49;101294.04;;;-9.35;100.00
70971;BME280;58632;51.718;19.446;2024-01-10T05:35:15;101296.52;;;-9.35;100.00
70971;BME280;58632;51.718;19.446;2024-01-10T05:37:42;101298.77;;;-9.33;100.00
70971;BME280;58632;51.718;19.446;2024-01-10T05:40:09;101295.98;;;-9.32;100.00
70971;BME280;58632;51.718;19.446;2024-01-10T05:42:34;101294.16;;;-9.37;100.00
70971;BME280;58632;51.718;19.446;2024-01-10T05:45:03;101290.88;;;-9.43;100.00
70971;BME280;58632;51.718;19.446;2024-01-10T05:47:28;101289.11;;;-9.52;100.00
70971;BME280;58632;51.718;19.446;2024-01-10T05:49:56;101280.40;;;-9.60;100.00
70971;BME280;58632;51.718;19.446;2024-01-10T05:52:22;101282.34;;;-9.65;100.00
70971;BME280;58632;51.718;19.446;2024-01-10T05:54:47;101278.45;;;-9.72;100.00
70971;BME280;58632;51.718;19.446;2024-01-10T05:57:15;101277.02;;;-9.77;100.00
70971;BME280;58632;51.718;19.446;2024-01-10T05:59:41;101280.83;;;-9.76;100.00
70971;BME280;58632;51.718;19.446;2024-01-10T06:02:06;101277.52;;;-9.75;100.00
70971;BME280;58632;51.718;19.446;2024-01-10T06:04:32;101271.73;;;-9.74;100.00
70971;BME280;58632;51.718;19.446;2024-01-10T06:07:00;101271.08;;;-9.71;100.00
70971;BME280;58632;51.718;19.446;2024-01-10T06:09:29;101272.29;;;-9.65;100.00
70971;BME280;58632;51.718;19.446;2024-01-10T06:11:54;101269.65;;;-9.61;100.00
70971;BME280;58632;51.718;19.446;2024-01-10T06:14:20;101269.88;;;-9.57;100.00
70971;BME280;58632;51.718;19.446;2024-01-10T06:16:45;101268.98;;;-9.52;100.00
70971;BME280;58632;51.718;19.446;2024-01-10T06:19:11;101271.79;;;-9.50;100.00
70971;BME280;58632;51.718;19.446;2024-01-10T06:21:37;101267.72;;;-9.50;100.00
70971;BME280;58632;51.718;19.446;2024-01-10T06:24:02;101264.17;;;-9.53;100.00
70971;BME280;58632;51.718;19.446;2024-01-10T06:26:28;101268.95;;;-9.57;100.00
70971;BME280;58632;51.718;19.446;2024-01-10T06:28:53;101273.66;;;-9.56;100.00
70971;BME280;58632;51.718;19.446;2024-01-10T06:31:21;101267.92;;;-9.55;100.00
70971;BME280;58632;51.718;19.446;2024-01-10T06:33:47;101270.02;;;-9.55;100.00
70971;BME280;58632;51.718;19.446;2024-01-10T06:36:12;101265.05;;;-9.62;100.00
70971;BME280;58632;51.718;19.446;2024-01-10T06:38:40;101268.10;;;-9.71;100.00
70971;BME280;58632;51.718;19.446;2024-01-10T06:41:08;101263.73;;;-9.71;100.00
70971;BME280;58632;51.718;19.446;2024-01-10T06:43:34;101262.06;;;-9.69;100.00
70971;BME280;58632;51.718;19.446;2024-01-10T06:45:59;101257.95;;;-9.69;100.00
70971;BME280;58632;51.718;19.446;2024-01-10T06:48:25;101261.93;;;-9.64;100.00
70971;BME280;58632;51.718;19.446;2024-01-10T06:50:50;101258.52;;;-9.59;100.00
70971;BME280;58632;51.718;19.446;2024-01-10T06:53:16;101255.25;;;-9.54;100.00
70971;BME280;58632;51.718;19.446;2024-01-10T06:55:41;101253.60;;;-9.53;100.00
70971;BME280;58632;51.718;19.446;2024-01-10T06:58:07;101253.92;;;-9.53;100.00
70971;BME280;58632;51.718;19.446;2024-01-10T07:00:32;101252.95;;;-9.60;100.00
70971;BME280;58632;51.718;19.446;2024-01-10T07:03:00;101252.68;;;-9.57;100.00
70971;BME280;58632;51.718;19.446;2024-01-10T07:05:27;101251.70;;;-9.49;100.00
70971;BME280;58632;51.718;19.446;2024-01-10T07:07:53;101248.89;;;-9.44;100.00
70971;BME280;58632;51.718;19.446;2024-01-10T07:10:19;101251.25;;;-9.39;100.00
70971;BME280;58632;51.718;19.446;2024-01-10T07:12:44;101252.63;;;-9.35;100.00
70971;BME280;58632;51.718;19.446;2024-01-10T07:15:10;101256.02;;;-9.30;100.00
70971;BME280;58632;51.718;19.446;2024-01-10T07:17:37;101254.96;;;-9.23;100.00
70971;BME280;58632;51.718;19.446;2024-01-10T07:20:02;101260.94;;;-9.21;100.00
70971;BME280;58632;51.718;19.446;2024-01-10T07:22:28;101259.86;;;-9.18;100.00
70971;BME280;58632;51.718;19.446;2024-01-10T07:24:53;101263.95;;;-9.11;100.00
70971;BME280;58632;51.718;19.446;2024-01-10T07:27:19;101257.63;;;-9.04;100.00
70971;BME280;58632;51.718;19.446;2024-01-10T07:29:44;101252.13;;;-8.96;100.00
70971;BME280;58632;51.718;19.446;2024-01-10T07:32:09;101253.60;;;-8.91;100.00
70971;BME280;58632;51.718;19.446;2024-01-10T07:34:39;101250.81;;;-8.86;100.00
70971;BME280;58632;51.718;19.446;2024-01-10T07:37:04;101249.67;;;-8.81;100.00
70971;BME280;58632;51.718;19.446;2024-01-10T07:39:30;101248.61;;;-8.70;100.00
70971;BME280;58632;51.718;19.446;2024-01-10T07:41:56;101253.31;;;-8.66;100.00
70971;BME280;58632;51.718;19.446;2024-01-10T07:44:21;101255.85;;;-8.62;100.00
70971;BME280;58632;51.718;19.446;2024-01-10T07:46:47;101249.38;;;-8.51;100.00
70971;BME280;58632;51.718;19.446;2024-01-10T07:49:12;101248.47;;;-8.40;100.00
70971;BME280;58632;51.718;19.446;2024-01-10T07:51:38;101242.48;;;-8.26;100.00
70971;BME280;58632;51.718;19.446;2024-01-10T07:54:03;101248.73;;;-8.16;100.00
70971;BME280;58632;51.718;19.446;2024-01-10T07:56:28;101248.70;;;-8.18;100.00
70971;BME280;58632;51.718;19.446;2024-01-10T07:58:55;101251.48;;;-8.17;100.00
70971;BME280;58632;51.718;19.446;2024-01-10T08:01:20;101257.67;;;-8.07;100.00
70971;BME280;58632;51.718;19.446;2024-01-10T08:03:46;101258.24;;;-7.91;100.00
70971;BME280;58632;51.718;19.446;2024-01-10T08:06:12;101255.48;;;-7.77;100.00
70971;BME280;58632;51.718;19.446;2024-01-10T08:08:38;101257.13;;;-7.61;100.00
70971;BME280;58632;51.718;19.446;2024-01-10T08:11:04;101258.61;;;-7.47;100.00
70971;BME280;58632;51.718;19.446;2024-01-10T08:13:29;101264.88;;;-7.33;100.00
70971;BME280;58632;51.718;19.446;2024-01-10T08:15:55;101271.60;;;-7.24;100.00
70971;BME280;58632;51.718;19.446;2024-01-10T08:18:20;101272.21;;;-7.17;100.00
70971;BME280;58632;51.718;19.446;2024-01-10T08:20:48;101272.13;;;-7.11;100.00
70971;BME280;58632;51.718;19.446;2024-01-10T08:23:13;101281.25;;;-7.10;100.00
70971;BME280;58632;51.718;19.446;2024-01-10T08:25:39;101280.13;;;-7.13;100.00
70971;BME280;58632;51.718;19.446;2024-01-10T08:28:05;101280.30;;;-7.10;100.00
70971;BME280;58632;51.718;19.446;2024-01-10T08:30:31;101280.10;;;-7.03;100.00
70971;BME280;58632;51.718;19.446;2024-01-10T08:33:16;101276.00;;;-7.03;100.00
70971;BME280;58632;51.718;19.446;2024-01-10T08:35:43;101280.55;;;-6.96;100.00
70971;BME280;58632;51.718;19.446;2024-01-10T08:38:11;101275.80;;;-6.90;100.00
70971;BME280;58632;51.718;19.446;2024-01-10T08:40:36;101272.65;;;-6.79;100.00
70971;BME280;58632;51.718;19.446;2024-01-10T08:43:02;101279.49;;;-6.67;100.00
70971;BME280;58632;51.718;19.446;2024-01-10T08:45:28;101280.92;;;-6.63;100.00
70971;BME280;58632;51.718;19.446;2024-01-10T08:47:54;101282.17;;;-6.52;100.00
70971;BME280;58632;51.718;19.446;2024-01-10T08:50:20;101280.53;;;-6.36;100.00
70971;BME280;58632;51.718;19.446;2024-01-10T08:52:47;101280.17;;;-6.20;100.00
70971;BME280;58632;51.718;19.446;2024-01-10T08:55:12;101279.02;;;-6.13;100.00
70971;BME280;58632;51.718;19.446;2024-01-10T08:57:37;101278.64;;;-6.05;100.00
70971;BME280;58632;51.718;19.446;2024-01-10T09:00:03;101276.71;;;-5.99;100.00
70971;BME280;58632;51.718;19.446;2024-01-10T09:02:31;101272.34;;;-5.93;100.00
70971;BME280;58632;51.718;19.446;2024-01-10T09:04:58;101270.23;;;-5.96;100.00
70971;BME280;58632;51.718;19.446;2024-01-10T09:07:23;101271.23;;;-5.90;100.00
70971;BME280;58632;51.718;19.446;2024-01-10T09:09:49;101267.48;;;-5.82;100.00
70971;BME280;58632;51.718;19.446;2024-01-10T09:12:14;101272.41;;;-5.73;100.00
70971;BME280;58632;51.718;19.446;2024-01-10T09:14:40;101275.40;;;-5.66;100.00
70971;BME280;58632;51.718;19.446;2024-01-10T09:17:06;101280.17;;;-5.63;100.00
70971;BME280;58632;51.718;19.446;2024-01-10T09:19:32;101284.03;;;-5.58;100.00
70971;BME280;58632;51.718;19.446;2024-01-10T09:21:58;101281.48;;;-5.61;99.36
70971;BME280;58632;51.718;19.446;2024-01-10T09:24:23;101283.48;;;-5.64;99.69
70971;BME280;58632;51.718;19.446;2024-01-10T09:26:51;101283.67;;;-5.60;100.00
70971;BME280;58632;51.718;19.446;2024-01-10T09:29:16;101285.55;;;-5.53;100.00
70971;BME280;58632;51.718;19.446;2024-01-10T09:31:42;101284.98;;;-5.46;100.00
70971;BME280;58632;51.718;19.446;2024-01-10T09:34:07;101283.08;;;-5.44;100.00
70971;BME280;58632;51.718;19.446;2024-01-10T09:36:32;101277.77;;;-5.35;100.00
70971;BME280;58632;51.718;19.446;2024-01-10T09:39:00;101275.48;;;-5.24;100.00
70971;BME280;58632;51.718;19.446;2024-01-10T09:41:30;101278.39;;;-5.13;100.00
70971;BME280;58632;51.718;19.446;2024-01-10T09:43:57;101275.13;;;-5.01;100.00
70971;BME280;58632;51.718;19.446;2024-01-10T09:46:23;101267.84;;;-4.87;100.00
70971;BME280;58632;51.718;19.446;2024-01-10T09:48:48;101264.16;;;-4.75;100.00
70971;BME280;58632;51.718;19.446;2024-01-10T09:51:13;101263.08;;;-4.63;100.00
70971;BME280;58632;51.718;19.446;2024-01-10T09:53:40;101264.12;;;-4.58;98.80
70971;BME280;58632;51.718;19.446;2024-01-10T09:56:09;101260.22;;;-4.51;99.62
70971;BME280;58632;51.718;19.446;2024-01-10T09:58:35;101255.96;;;-4.39;100.00
70971;BME280;58632;51.718;19.446;2024-01-10T10:01:05;101251.17;;;-4.23;100.00
70971;BME280;58632;51.718;19.446;2024-01-10T10:03:30;101248.43;;;-4.14;99.29
70971;BME280;58632;51.718;19.446;2024-01-10T10:05:57;101242.34;;;-4.07;99.81
70971;BME280;58632;51.718;19.446;2024-01-10T10:08:23;101243.55;;;-3.98;100.00
70971;BME280;58632;51.718;19.446;2024-01-10T10:10:48;101240.69;;;-3.95;98.04
70971;BME280;58632;51.718;19.446;2024-01-10T10:13:24;101237.72;;;-3.94;97.61
70971;BME280;58632;51.718;19.446;2024-01-10T10:16:00;101238.23;;;-3.90;98.26
70971;BME280;58632;51.718;19.446;2024-01-10T10:18:26;101233.26;;;-3.84;98.41
70971;BME280;58632;51.718;19.446;2024-01-10T10:21:07;101234.71;;;-3.78;98.35
70971;BME280;58632;51.718;19.446;2024-01-10T10:23:34;101230.63;;;-3.74;96.69
70971;BME280;58632;51.718;19.446;2024-01-10T10:26:08;101235.22;;;-3.77;93.61
70971;BME280;58632;51.718;19.446;2024-01-10T10:28:34;101234.17;;;-3.84;91.20
70971;BME280;58632;51.718;19.446;2024-01-10T10:31:00;101232.70;;;-3.86;93.23
70971;BME280;58632;51.718;19.446;2024-01-10T10:33:25;101237.31;;;-3.82;94.48
70971;BME280;58632;51.718;19.446;2024-01-10T10:35:51;101231.97;;;-3.80;94.12
70971;BME280;58632;51.718;19.446;2024-01-10T10:38:16;101232.90;;;-3.78;94.43
70971;BME280;58632;51.718;19.446;2024-01-10T10:40:41;101224.11;;;-3.79;90.70
70971;BME280;58632;51.718;19.446;2024-01-10T10:43:08;101224.31;;;-3.79;91.33
70971;BME280;58632;51.718;19.446;2024-01-10T10:45:37;101215.67;;;-3.74;92.85
70971;BME280;58632;51.718;19.446;2024-01-10T10:48:02;101219.19;;;-3.68;93.73
70971;BME280;58632;51.718;19.446;2024-01-10T10:50:29;101211.26;;;-3.62;93.72
70971;BME280;58632;51.718;19.446;2024-01-10T10:52:57;101210.56;;;-3.61;91.70
70971;BME280;58632;51.718;19.446;2024-01-10T10:55:24;101209.06;;;-3.59;91.92
70971;BME280;58632;51.718;19.446;2024-01-10T10:57:51;101202.55;;;-3.58;90.58
70971;BME280;58632;51.718;19.446;2024-01-10T11:00:20;101198.08;;;-3.55;92.39
70971;BME280;58632;51.718;19.446;2024-01-10T11:02:55;101191.63;;;-3.52;91.56
70971;BME280;58632;51.718;19.446;2024-01-10T11:05:22;101188.80;;;-3.50;90.90
70971;BME280;58632;51.718;19.446;2024-01-10T11:07:48;101184.35;;;-3.47;90.09
70971;BME280;58632;51.718;19.446;2024-01-10T11:10:18;101180.53;;;-3.48;87.61
70971;BME280;58632;51.718;19.446;2024-01-10T11:15:39;101184.69;;;-3.50;88.32
70971;BME280;58632;51.718;19.446;2024-01-10T11:20:56;101188.71;;;-3.46;89.77
70971;BME280;58632;51.718;19.446;2024-01-10T11:23:42;101187.16;;;-3.44;90.29
70971;BME280;58632;51.718;19.446;2024-01-10T11:26:10;101186.32;;;-3.40;89.96
70971;BME280;58632;51.718;19.446;2024-01-10T11:28:36;101185.65;;;-3.37;89.01
70971;BME280;58632;51.718;19.446;2024-01-10T11:31:02;101189.70;;;-3.34;89.58
70971;BME280;58632;51.718;19.446;2024-01-10T11:33:32;101188.19;;;-3.30;88.67
70971;BME280;58632;51.718;19.446;2024-01-10T11:39:09;101187.98;;;-3.21;90.04
70971;BME280;58632;51.718;19.446;2024-01-10T11:41:30;101186.89;;;-3.16;88.06
70971;BME280;58632;51.718;19.446;2024-01-10T11:46:45;101175.04;;;-3.13;86.01
70971;BME280;58632;51.718;19.446;2024-01-10T11:49:11;101172.70;;;-3.10;85.90
70971;BME280;58632;51.718;19.446;2024-01-10T11:51:43;101162.67;;;-3.10;82.01
70971;BME280;58632;51.718;19.446;2024-01-10T11:54:09;101154.69;;;-3.08;82.68
70971;BME280;58632;51.718;19.446;2024-01-10T11:56:41;101149.90;;;-3.04;82.83
70971;BME280;58632;51.718;19.446;2024-01-10T11:59:08;101151.18;;;-3.02;80.38
70971;BME280;58632;51.718;19.446;2024-01-10T12:01:35;101147.86;;;-2.98;80.16
70971;BME280;58632;51.718;19.446;2024-01-10T12:04:00;101149.31;;;-2.96;75.73
70971;BME280;58632;51.718;19.446;2024-01-10T12:06:30;101144.83;;;-2.92;76.65
70971;BME280;58632;51.718;19.446;2024-01-10T12:08:56;101138.78;;;-2.88;76.72
70971;BME280;58632;51.718;19.446;2024-01-10T12:11:22;101139.30;;;-2.84;76.08
70971;BME280;58632;51.718;19.446;2024-01-10T12:13:47;101141.33;;;-2.81;75.15
70971;BME280;58632;51.718;19.446;2024-01-10T12:16:13;101140.30;;;-2.80;73.21
70971;BME280;58632;51.718;19.446;2024-01-10T12:18:42;101138.13;;;-2.75;75.03
70971;BME280;58632;51.718;19.446;2024-01-10T12:21:11;101136.86;;;-2.72;73.75
70971;BME280;58632;51.718;19.446;2024-01-10T12:23:39;101136.30;;;-2.69;72.74
70971;BME280;58632;51.718;19.446;2024-01-10T12:26:06;101135.11;;;-2.65;73.21
70971;BME280;58632;51.718;19.446;2024-01-10T12:28:35;101133.06;;;-2.61;73.90
70971;BME280;58632;51.718;19.446;2024-01-10T12:31:03;101127.58;;;-2.59;74.32
70971;BME280;58632;51.718;19.446;2024-01-10T12:33:32;101123.13;;;-2.57;74.93
70971;BME280;58632;51.718;19.446;2024-01-10T12:36:04;101122.44;;;-2.55;74.49
70971;BME280;58632;51.718;19.446;2024-01-10T12:38:30;101119.34;;;-2.53;75.55